Terminal Aerodrome Forecast
Issued by NWS

Current Version | Previous Version | Graphics & Text | Print | Product List | Glossary On
Versions: 1 2 3 4 5 6 7 8 9 10 11 12 13 14 15 16 17 18 19 20 21 22 23 24 25 26 27
000
FTUS41 KILN 221100
TAFLUK
TAF
KLUK 221139Z 2212/2312 16004KT P6SM -RA SCT040 OVC050
      TEMPO 2212/2213 00000KT -FZRA BKN030
     FM221400 19012KT P6SM BKN080
     FM222300 18007KT P6SM SCT080
     FM230900 17006KT P6SM BKN030 BKN200
      TEMPO 2310/2312 SCT030 BKN100=

USA.gov is the U.S. government's official web portal to all federal, state and local government web resources and services.